sensor_id;sensor_type;location;lat;lon;timestamp;temperature;humidity
40454;DHT22;26160;51.858;4.398;2023-03-13T00:00:54;9.90;99.90
40454;DHT22;26160;51.858;4.398;2023-03-13T00:03:20;9.90;99.90
40454;DHT22;26160;51.858;4.398;2023-03-13T00:05:46;9.90;99.90
40454;DHT22;26160;51.858;4.398;2023-03-13T00:08:12;9.90;99.90
40454;DHT22;26160;51.858;4.398;2023-03-13T00:10:39;10.00;99.90
40454;DHT22;26160;51.858;4.398;2023-03-13T00:13:07;10.00;99.90
40454;DHT22;26160;51.858;4.398;2023-03-13T00:15:33;10.00;99.90
40454;DHT22;26160;51.858;4.398;2023-03-13T00:17:59;10.00;99.90
40454;DHT22;26160;51.858;4.398;2023-03-13T00:20:25;10.00;99.90
40454;DHT22;26160;51.858;4.398;2023-03-13T00:22:51;10.00;99.90
40454;DHT22;26160;51.858;4.398;2023-03-13T00:25:18;10.10;99.90
40454;DHT22;26160;51.858;4.398;2023-03-13T00:27:44;10.10;99.90
40454;DHT22;26160;51.858;4.398;2023-03-13T00:30:10;10.10;99.90
40454;DHT22;26160;51.858;4.398;2023-03-13T00:32:44;10.10;99.90
40454;DHT22;26160;51.858;4.398;2023-03-13T00:35:14;10.10;99.90
40454;DHT22;26160;51.858;4.398;2023-03-13T00:37:41;10.10;99.90
40454;DHT22;26160;51.858;4.398;2023-03-13T00:40:10;10.10;99.90
40454;DHT22;26160;51.858;4.398;2023-03-13T00:42:36;10.20;99.90
40454;DHT22;26160;51.858;4.398;2023-03-13T00:45:03;10.20;99.90
40454;DHT22;26160;51.858;4.398;2023-03-13T00:47:29;10.20;99.90
40454;DHT22;26160;51.858;4.398;2023-03-13T00:49:55;10.20;99.90
40454;DHT22;26160;51.858;4.398;2023-03-13T00:52:21;10.20;99.90
40454;DHT22;26160;51.858;4.398;2023-03-13T00:54:48;10.20;99.90
40454;DHT22;26160;51.858;4.398;2023-03-13T00:57:14;10.30;99.90
40454;DHT22;26160;51.858;4.398;2023-03-13T00:59:40;10.30;99.90
40454;DHT22;26160;51.858;4.398;2023-03-13T01:02:06;10.30;99.90
40454;DHT22;26160;51.858;4.398;2023-03-13T01:04:32;10.30;99.90
40454;DHT22;26160;51.858;4.398;2023-03-13T01:06:58;10.30;99.90
40454;DHT22;26160;51.858;4.398;2023-03-13T01:09:24;10.40;99.90
40454;DHT22;26160;51.858;4.398;2023-03-13T01:11:50;10.30;99.90
40454;DHT22;26160;51.858;4.398;2023-03-13T01:14:18;10.40;99.90
40454;DHT22;26160;51.858;4.398;2023-03-13T01:16:45;10.40;99.90
40454;DHT22;26160;51.858;4.398;2023-03-13T01:19:14;10.40;99.90
40454;DHT22;26160;51.858;4.398;2023-03-13T01:21:42;10.50;99.90
40454;DHT22;26160;51.858;4.398;2023-03-13T01:24:08;10.50;99.90
40454;DHT22;26160;51.858;4.398;2023-03-13T01:26:34;10.50;99.90
40454;DHT22;26160;51.858;4.398;2023-03-13T01:29:01;10.50;99.90
40454;DHT22;26160;51.858;4.398;2023-03-13T01:31:29;10.60;99.90
40454;DHT22;26160;51.858;4.398;2023-03-13T01:34:00;10.60;99.90
40454;DHT22;26160;51.858;4.398;2023-03-13T01:36:28;10.70;99.90
40454;DHT22;26160;51.858;4.398;2023-03-13T01:38:56;10.70;99.90
40454;DHT22;26160;51.858;4.398;2023-03-13T01:41:23;10.70;99.90
40454;DHT22;26160;51.858;4.398;2023-03-13T01:43:50;10.80;99.90
40454;DHT22;26160;51.858;4.398;2023-03-13T01:46:17;10.80;99.90
40454;DHT22;26160;51.858;4.398;2023-03-13T01:49:05;10.80;99.90
40454;DHT22;26160;51.858;4.398;2023-03-13T01:51:38;10.80;99.90
40454;DHT22;26160;51.858;4.398;2023-03-13T01:54:26;10.80;99.90
40454;DHT22;26160;51.858;4.398;2023-03-13T01:59:48;10.90;99.90
40454;DHT22;26160;51.858;4.398;2023-03-13T02:02:13;10.90;99.90
40454;DHT22;26160;51.858;4.398;2023-03-13T02:04:45;11.00;99.90
40454;DHT22;26160;51.858;4.398;2023-03-13T02:07:18;11.00;99.90
40454;DHT22;26160;51.858;4.398;2023-03-13T02:09:48;11.10;99.90
40454;DHT22;26160;51.858;4.398;2023-03-13T02:12:21;11.20;99.90
40454;DHT22;26160;51.858;4.398;2023-03-13T02:14:49;11.10;99.90
40454;DHT22;26160;51.858;4.398;2023-03-13T02:17:16;11.20;99.90
40454;DHT22;26160;51.858;4.398;2023-03-13T02:19:51;11.20;99.90
40454;DHT22;26160;51.858;4.398;2023-03-13T02:28:00;11.30;99.90
40454;DHT22;26160;51.858;4.398;2023-03-13T02:30:26;11.30;99.90
40454;DHT22;26160;51.858;4.398;2023-03-13T02:32:53;11.40;99.90
40454;DHT22;26160;51.858;4.398;2023-03-13T02:35:21;11.40;99.90
40454;DHT22;26160;51.858;4.398;2023-03-13T02:37:54;11.40;99.90
40454;DHT22;26160;51.858;4.398;2023-03-13T02:40:26;11.40;99.90
40454;DHT22;26160;51.858;4.398;2023-03-13T02:42:54;11.50;99.90
40454;DHT22;26160;51.858;4.398;2023-03-13T02:45:23;11.60;99.90
40454;DHT22;26160;51.858;4.398;2023-03-13T02:47:49;11.60;99.90
40454;DHT22;26160;51.858;4.398;2023-03-13T02:50:16;11.60;99.90
40454;DHT22;26160;51.858;4.398;2023-03-13T02:52:49;11.60;99.90
40454;DHT22;26160;51.858;4.398;2023-03-13T02:55:23;11.70;99.90
40454;DHT22;26160;51.858;4.398;2023-03-13T02:57:52;11.70;99.90
40454;DHT22;26160;51.858;4.398;2023-03-13T03:00:18;11.70;99.90
40454;DHT22;26160;51.858;4.398;2023-03-13T03:02:45;11.70;99.90
40454;DHT22;26160;51.858;4.398;2023-03-13T03:05:12;11.70;99.90
40454;DHT22;26160;51.858;4.398;2023-03-13T03:07:38;11.80;99.90
40454;DHT22;26160;51.858;4.398;2023-03-13T03:10:04;11.80;99.90
40454;DHT22;26160;51.858;4.398;2023-03-13T03:12:31;11.80;99.90
40454;DHT22;26160;51.858;4.398;2023-03-13T03:14:57;11.80;99.90
40454;DHT22;26160;51.858;4.398;2023-03-13T03:17:23;11.90;99.90
40454;DHT22;26160;51.858;4.398;2023-03-13T03:19:49;11.90;99.90
40454;DHT22;26160;51.858;4.398;2023-03-13T03:22:15;11.90;99.90
40454;DHT22;26160;51.858;4.398;2023-03-13T03:24:41;11.90;99.90
40454;DHT22;26160;51.858;4.398;2023-03-13T03:27:07;12.00;99.90
40454;DHT22;26160;51.858;4.398;2023-03-13T03:29:33;12.00;99.90
40454;DHT22;26160;51.858;4.398;2023-03-13T03:31:59;12.00;99.90
40454;DHT22;26160;51.858;4.398;2023-03-13T03:34:28;12.00;99.90
40454;DHT22;26160;51.858;4.398;2023-03-13T03:36:54;12.00;99.90
40454;DHT22;26160;51.858;4.398;2023-03-13T03:39:20;12.10;99.90
40454;DHT22;26160;51.858;4.398;2023-03-13T03:41:46;12.10;99.90
40454;DHT22;26160;51.858;4.398;2023-03-13T03:44:12;12.10;99.90
40454;DHT22;26160;51.858;4.398;2023-03-13T03:46:38;12.10;99.90
40454;DHT22;26160;51.858;4.398;2023-03-13T03:49:04;12.10;99.90
40454;DHT22;26160;51.858;4.398;2023-03-13T03:51:30;12.10;99.90
40454;DHT22;26160;51.858;4.398;2023-03-13T03:54:02;12.20;99.90
40454;DHT22;26160;51.858;4.398;2023-03-13T03:56:36;12.20;99.90
40454;DHT22;26160;51.858;4.398;2023-03-13T03:59:02;12.10;99.90
40454;DHT22;26160;51.858;4.398;2023-03-13T04:01:28;12.10;99.90
40454;DHT22;26160;51.858;4.398;2023-03-13T04:03:54;12.10;99.90
40454;DHT22;26160;51.858;4.398;2023-03-13T04:06:20;12.10;99.90
40454;DHT22;26160;51.858;4.398;2023-03-13T04:08:46;12.10;99.90
40454;DHT22;26160;51.858;4.398;2023-03-13T04:11:12;12.10;99.90
40454;DHT22;26160;51.858;4.398;2023-03-13T04:13:38;12.10;99.90
40454;DHT22;26160;51.858;4.398;2023-03-13T04:16:08;12.20;99.90
40454;DHT22;26160;51.858;4.398;2023-03-13T04:18:34;12.20;99.90
40454;DHT22;26160;51.858;4.398;2023-03-13T04:21:02;12.20;99.90
40454;DHT22;26160;51.858;4.398;2023-03-13T04:23:29;12.20;99.90
40454;DHT22;26160;51.858;4.398;2023-03-13T04:25:55;12.30;99.90
40454;DHT22;26160;51.858;4.398;2023-03-13T04:28:21;12.30;99.90
40454;DHT22;26160;51.858;4.398;2023-03-13T04:30:47;12.40;99.90
40454;DHT22;26160;51.858;4.398;2023-03-13T04:33:13;12.30;99.90
40454;DHT22;26160;51.858;4.398;2023-03-13T04:35:39;12.30;99.90
40454;DHT22;26160;51.858;4.398;2023-03-13T04:38:05;12.30;99.90
40454;DHT22;26160;51.858;4.398;2023-03-13T04:40:31;12.40;99.90
40454;DHT22;26160;51.858;4.398;2023-03-13T04:42:57;12.40;99.90
40454;DHT22;26160;51.858;4.398;2023-03-13T04:45:23;12.40;99.90
40454;DHT22;26160;51.858;4.398;2023-03-13T04:47:49;12.40;99.90
40454;DHT22;26160;51.858;4.398;2023-03-13T04:50:16;12.50;99.90
40454;DHT22;26160;51.858;4.398;2023-03-13T04:52:42;12.50;99.90
40454;DHT22;26160;51.858;4.398;2023-03-13T04:55:08;12.50;99.90
40454;DHT22;26160;51.858;4.398;2023-03-13T04:57:34;12.60;99.90
40454;DHT22;26160;51.858;4.398;2023-03-13T05:00:00;12.60;99.90
40454;DHT22;26160;51.858;4.398;2023-03-13T05:02:26;12.60;99.90
40454;DHT22;26160;51.858;4.398;2023-03-13T05:04:52;12.60;99.90
40454;DHT22;26160;51.858;4.398;2023-03-13T05:07:18;12.60;99.90
40454;DHT22;26160;51.858;4.398;2023-03-13T05:09:44;12.60;99.90
40454;DHT22;26160;51.858;4.398;2023-03-13T05:12:10;12.60;99.90
40454;DHT22;26160;51.858;4.398;2023-03-13T05:14:36;12.60;99.90
40454;DHT22;26160;51.858;4.398;2023-03-13T05:17:03;12.70;99.90
40454;DHT22;26160;51.858;4.398;2023-03-13T05:19:29;12.60;99.90
40454;DHT22;26160;51.858;4.398;2023-03-13T05:21:55;12.70;99.90
40454;DHT22;26160;51.858;4.398;2023-03-13T05:24:21;12.80;99.90
40454;DHT22;26160;51.858;4.398;2023-03-13T05:26:47;12.80;99.90
40454;DHT22;26160;51.858;4.398;2023-03-13T05:29:13;12.80;99.90
40454;DHT22;26160;51.858;4.398;2023-03-13T05:31:39;12.80;99.90
40454;DHT22;26160;51.858;4.398;2023-03-13T05:34:05;12.80;99.90
40454;DHT22;26160;51.858;4.398;2023-03-13T05:36:31;12.80;99.90
40454;DHT22;26160;51.858;4.398;2023-03-13T05:38:57;12.80;99.90
40454;DHT22;26160;51.858;4.398;2023-03-13T05:41:23;12.80;99.90
40454;DHT22;26160;51.858;4.398;2023-03-13T05:43:49;12.80;99.90
40454;DHT22;26160;51.858;4.398;2023-03-13T05:46:15;12.90;99.90
40454;DHT22;26160;51.858;4.398;2023-03-13T05:48:41;12.90;99.90
40454;DHT22;26160;51.858;4.398;2023-03-13T05:51:10;12.90;99.90
40454;DHT22;26160;51.858;4.398;2023-03-13T05:53:36;12.90;99.90
40454;DHT22;26160;51.858;4.398;2023-03-13T05:56:02;13.00;99.90
40454;DHT22;26160;51.858;4.398;2023-03-13T05:58:28;13.00;99.90
40454;DHT22;26160;51.858;4.398;2023-03-13T06:00:54;13.00;99.90
40454;DHT22;26160;51.858;4.398;2023-03-13T06:03:23;13.00;99.90
40454;DHT22;26160;51.858;4.398;2023-03-13T06:05:55;13.00;99.90
40454;DHT22;26160;51.858;4.398;2023-03-13T06:08:21;13.00;99.90
40454;DHT22;26160;51.858;4.398;2023-03-13T06:10:47;13.00;99.90
40454;DHT22;26160;51.858;4.398;2023-03-13T06:13:13;13.00;99.90
40454;DHT22;26160;51.858;4.398;2023-03-13T06:15:39;12.90;99.90
40454;DHT22;26160;51.858;4.398;2023-03-13T06:18:06;12.80;99.90
40454;DHT22;26160;51.858;4.398;2023-03-13T06:20:32;12.80;99.90
40454;DHT22;26160;51.858;4.398;2023-03-13T06:22:58;12.80;99.90
40454;DHT22;26160;51.858;4.398;2023-03-13T06:25:24;12.60;99.90
40454;DHT22;26160;51.858;4.398;2023-03-13T06:27:50;12.60;99.90
40454;DHT22;26160;51.858;4.398;2023-03-13T06:30:17;12.50;99.90
40454;DHT22;26160;51.858;4.398;2023-03-13T06:32:43;12.40;99.90
40454;DHT22;26160;51.858;4.398;2023-03-13T06:35:09;12.40;99.90
40454;DHT22;26160;51.858;4.398;2023-03-13T06:37:35;12.30;99.90
40454;DHT22;26160;51.858;4.398;2023-03-13T06:40:01;12.20;99.90
40454;DHT22;26160;51.858;4.398;2023-03-13T06:42:27;12.20;99.90
40454;DHT22;26160;51.858;4.398;2023-03-13T06:44:53;12.10;99.90
40454;DHT22;26160;51.858;4.398;2023-03-13T06:47:19;12.10;99.90
40454;DHT22;26160;51.858;4.398;2023-03-13T06:49:45;12.10;99.90
40454;DHT22;26160;51.858;4.398;2023-03-13T06:52:11;12.10;99.90
40454;DHT22;26160;51.858;4.398;2023-03-13T06:54:37;12.10;99.90
40454;DHT22;26160;51.858;4.398;2023-03-13T06:57:03;12.00;99.90
40454;DHT22;26160;51.858;4.398;2023-03-13T06:59:29;12.10;99.90
40454;DHT22;26160;51.858;4.398;2023-03-13T07:01:56;12.10;99.90
40454;DHT22;26160;51.858;4.398;2023-03-13T07:04:22;12.00;99.90
40454;DHT22;26160;51.858;4.398;2023-03-13T07:06:50;12.00;99.90
40454;DHT22;26160;51.858;4.398;2023-03-13T07:09:16;12.00;99.90
40454;DHT22;26160;51.858;4.398;2023-03-13T07:11:44;12.10;99.90
40454;DHT22;26160;51.858;4.398;2023-03-13T07:14:11;12.10;99.90
40454;DHT22;26160;51.858;4.398;2023-03-13T07:16:37;12.10;99.90
40454;DHT22;26160;51.858;4.398;2023-03-13T07:19:03;12.10;99.90
40454;DHT22;26160;51.858;4.398;2023-03-13T07:21:29;12.10;99.90
40454;DHT22;26160;51.858;4.398;2023-03-13T07:23:55;12.10;99.90
40454;DHT22;26160;51.858;4.398;2023-03-13T07:26:21;12.10;99.90
40454;DHT22;26160;51.858;4.398;2023-03-13T07:28:47;12.10;99.90
40454;DHT22;26160;51.858;4.398;2023-03-13T07:31:15;12.10;99.90
40454;DHT22;26160;51.858;4.398;2023-03-13T07:33:43;12.20;99.90
40454;DHT22;26160;51.858;4.398;2023-03-13T07:36:11;12.20;99.90
40454;DHT22;26160;51.858;4.398;2023-03-13T07:38:37;12.20;99.90
40454;DHT22;26160;51.858;4.398;2023-03-13T07:41:03;12.30;99.90
40454;DHT22;26160;51.858;4.398;2023-03-13T07:43:32;12.30;99.90
40454;DHT22;26160;51.858;4.398;2023-03-13T07:46:04;12.40;99.90
40454;DHT22;26160;51.858;4.398;2023-03-13T07:48:36;12.30;99.90
40454;DHT22;26160;51.858;4.398;2023-03-13T07:51:09;12.30;99.90
40454;DHT22;26160;51.858;4.398;2023-03-13T07:53:35;12.30;99.90
40454;DHT22;26160;51.858;4.398;2023-03-13T07:56:04;12.30;99.90
40454;DHT22;26160;51.858;4.398;2023-03-13T07:58:33;12.30;99.90
40454;DHT22;26160;51.858;4.398;2023-03-13T08:00:59;12.30;99.90
40454;DHT22;26160;51.858;4.398;2023-03-13T08:03:26;12.40;99.90
40454;DHT22;26160;51.858;4.398;2023-03-13T08:06:00;12.40;99.90
40454;DHT22;26160;51.858;4.398;2023-03-13T08:08:27;12.50;99.90
40454;DHT22;26160;51.858;4.398;2023-03-13T08:11:01;12.50;99.90
40454;DHT22;26160;51.858;4.398;2023-03-13T08:13:28;12.50;99.90
40454;DHT22;26160;51.858;4.398;2023-03-13T08:18:35;12.50;99.90
40454;DHT22;26160;51.858;4.398;2023-03-13T08:21:04;12.50;99.90
40454;DHT22;26160;51.858;4.398;2023-03-13T08:23:31;12.50;99.90
40454;DHT22;26160;51.858;4.398;2023-03-13T08:26:18;12.50;99.90
40454;DHT22;26160;51.858;4.398;2023-03-13T08:28:46;12.50;99.90
40454;DHT22;26160;51.858;4.398;2023-03-13T08:31:17;12.60;99.90
40454;DHT22;26160;51.858;4.398;2023-03-13T08:33:45;12.60;99.90
40454;DHT22;26160;51.858;4.398;2023-03-13T08:36:14;12.70;99.90
40454;DHT22;26160;51.858;4.398;2023-03-13T08:38:42;12.70;99.90
40454;DHT22;26160;51.858;4.398;2023-03-13T08:41:14;12.70;99.90
40454;DHT22;26160;51.858;4.398;2023-03-13T08:43:41;12.70;99.90
40454;DHT22;26160;51.858;4.398;2023-03-13T08:46:07;12.90;99.90
40454;DHT22;26160;51.858;4.398;2023-03-13T08:48:33;12.90;99.90
40454;DHT22;26160;51.858;4.398;2023-03-13T08:51:03;13.10;99.90
40454;DHT22;26160;51.858;4.398;2023-03-13T08:53:35;13.30;99.90
40454;DHT22;26160;51.858;4.398;2023-03-13T08:56:02;13.50;99.90
40454;DHT22;26160;51.858;4.398;2023-03-13T08:58:29;13.60;99.90
40454;DHT22;26160;51.858;4.398;2023-03-13T09:01:04;13.70;99.90
40454;DHT22;26160;51.858;4.398;2023-03-13T09:03:31;13.90;99.90
40454;DHT22;26160;51.858;4.398;2023-03-13T09:05:59;14.20;99.90
40454;DHT22;26160;51.858;4.398;2023-03-13T09:08:26;14.40;99.90
40454;DHT22;26160;51.858;4.398;2023-03-13T09:13:23;14.50;99.90
40454;DHT22;26160;51.858;4.398;2023-03-13T09:16:01;14.60;99.90
40454;DHT22;26160;51.858;4.398;2023-03-13T09:18:28;14.60;99.90
40454;DHT22;26160;51.858;4.398;2023-03-13T09:20:54;14.70;99.90
40454;DHT22;26160;51.858;4.398;2023-03-13T09:23:21;14.60;99.90
40454;DHT22;26160;51.858;4.398;2023-03-13T09:25:48;14.70;99.90
40454;DHT22;26160;51.858;4.398;2023-03-13T09:28:16;14.50;99.90
40454;DHT22;26160;51.858;4.398;2023-03-13T09:30:43;14.40;99.90
40454;DHT22;26160;51.858;4.398;2023-03-13T09:33:09;14.50;99.90
40454;DHT22;26160;51.858;4.398;2023-03-13T09:35:38;14.60;99.90
40454;DHT22;26160;51.858;4.398;2023-03-13T09:38:05;14.60;99.90
40454;DHT22;26160;51.858;4.398;2023-03-13T09:40:46;14.60;99.90
40454;DHT22;26160;51.858;4.398;2023-03-13T09:43:39;14.70;99.90
40454;DHT22;26160;51.858;4.398;2023-03-13T09:46:08;14.70;99.90
40454;DHT22;26160;51.858;4.398;2023-03-13T09:48:42;14.80;99.90
40454;DHT22;26160;51.858;4.398;2023-03-13T09:51:39;14.90;99.90
40454;DHT22;26160;51.858;4.398;2023-03-13T09:54:25;14.80;99.90
40454;DHT22;26160;51.858;4.398;2023-03-13T09:56:56;14.80;99.90
40454;DHT22;26160;51.858;4.398;2023-03-13T09:59:28;14.80;99.90
40454;DHT22;26160;51.858;4.398;2023-03-13T10:01:56;15.00;99.90
40454;DHT22;26160;51.858;4.398;2023-03-13T10:04:45;15.00;99.90
40454;DHT22;26160;51.858;4.398;2023-03-13T10:07:13;15.00;99.90
40454;DHT22;26160;51.858;4.398;2023-03-13T10:09:40;15.20;99.90
40454;DHT22;26160;51.858;4.398;2023-03-13T10:12:20;15.40;99.90
40454;DHT22;26160;51.858;4.398;2023-03-13T10:18:10;15.50;99.90
40454;DHT22;26160;51.858;4.398;2023-03-13T10:20:39;15.50;99.90
40454;DHT22;26160;51.858;4.398;2023-03-13T10:23:18;15.50;99.90
40454;DHT22;26160;51.858;4.398;2023-03-13T10:25:46;15.70;99.90
40454;DHT22;26160;51.858;4.398;2023-03-13T10:28:14;15.80;99.90
40454;DHT22;26160;51.858;4.398;2023-03-13T10:30:46;15.90;99.90
40454;DHT22;26160;51.858;4.398;2023-03-13T10:33:19;16.10;99.90
40454;DHT22;26160;51.858;4.398;2023-03-13T10:35:45;16.10;99.90
40454;DHT22;26160;51.858;4.398;2023-03-13T10:38:21;16.20;99.90
40454;DHT22;26160;51.858;4.398;2023-03-13T10:41:05;16.40;99.90
40454;DHT22;26160;51.858;4.398;2023-03-13T10:43:32;16.60;99.90
40454;DHT22;26160;51.858;4.398;2023-03-13T10:45:59;16.80;99.90
40454;DHT22;26160;51.858;4.398;2023-03-13T10:48:29;17.00;99.90
40454;DHT22;26160;51.858;4.398;2023-03-13T10:51:00;17.10;99.90
40454;DHT22;26160;51.858;4.398;2023-03-13T10:56:09;17.20;99.90
40454;DHT22;26160;51.858;4.398;2023-03-13T10:58:45;17.40;99.90
40454;DHT22;26160;51.858;4.398;2023-03-13T11:01:39;17.50;99.90
40454;DHT22;26160;51.858;4.398;2023-03-13T11:06:51;17.10;99.90
40454;DHT22;26160;51.858;4.398;2023-03-13T11:09:22;16.70;99.90
40454;DHT22;26160;51.858;4.398;2023-03-13T11:11:55;16.50;99.90
40454;DHT22;26160;51.858;4.398;2023-03-13T11:14:25;16.40;99.90
40454;DHT22;26160;51.858;4.398;2023-03-13T11:17:01;16.30;99.90
40454;DHT22;26160;51.858;4.398;2023-03-13T11:19:55;16.20;99.90
40454;DHT22;26160;51.858;4.398;2023-03-13T11:22:45;16.20;99.90
40454;DHT22;26160;51.858;4.398;2023-03-13T11:25:49;16.20;99.90
40454;DHT22;26160;51.858;4.398;2023-03-13T11:31:17;16.50;99.90
40454;DHT22;26160;51.858;4.398;2023-03-13T11:36:52;16.60;99.90
40454;DHT22;26160;51.858;4.398;2023-03-13T11:41:59;17.10;99.90
40454;DHT22;26160;51.858;4.398;2023-03-13T11:44:36;17.20;99.90
40454;DHT22;26160;51.858;4.398;2023-03-13T11:58:12;17.00;99.90
40454;DHT22;26160;51.858;4.398;2023-03-13T12:00:47;17.10;99.90
40454;DHT22;26160;51.858;4.398;2023-03-13T12:03:26;17.30;99.90
40454;DHT22;26160;51.858;4.398;2023-03-13T12:05:57;17.60;99.90
40454;DHT22;26160;51.858;4.398;2023-03-13T12:08:29;17.80;99.90
40454;DHT22;26160;51.858;4.398;2023-03-13T12:11:15;18.00;99.90
40454;DHT22;26160;51.858;4.398;2023-03-13T12:13:54;18.20;99.90
40454;DHT22;26160;51.858;4.398;2023-03-13T12:16:32;18.20;99.90
40454;DHT22;26160;51.858;4.398;2023-03-13T12:19:02;18.20;99.90
40454;DHT22;26160;51.858;4.398;2023-03-13T12:21:34;18.20;99.90
40454;DHT22;26160;51.858;4.398;2023-03-13T12:24:22;17.90;99.90
40454;DHT22;26160;51.858;4.398;2023-03-13T12:26:56;17.60;99.90
40454;DHT22;26160;51.858;4.398;2023-03-13T12:32:11;17.60;99.90
40454;DHT22;26160;51.858;4.398;2023-03-13T12:34:49;17.70;99.90
40454;DHT22;26160;51.858;4.398;2023-03-13T12:40:40;17.80;99.90
40454;DHT22;26160;51.858;4.398;2023-03-13T12:43:14;17.60;99.90
40454;DHT22;26160;51.858;4.398;2023-03-13T12:57:39;17.70;99.90
40454;DHT22;26160;51.858;4.398;2023-03-13T13:00:23;17.80;99.90
40454;DHT22;26160;51.858;4.398;2023-03-13T13:03:28;17.60;99.90
40454;DHT22;26160;51.858;4.398;2023-03-13T13:06:09;17.30;99.90
40454;DHT22;26160;51.858;4.398;2023-03-13T13:09:00;17.50;99.90
40454;DHT22;26160;51.858;4.398;2023-03-13T13:17:03;17.40;99.90
40454;DHT22;26160;51.858;4.398;2023-03-13T13:30:28;17.50;99.90
40454;DHT22;26160;51.858;4.398;2023-03-13T13:35:35;17.00;99.90
40454;DHT22;26160;51.858;4.398;2023-03-13T13:38:28;16.70;99.90
40454;DHT22;26160;51.858;4.398;2023-03-13T13:43:41;16.20;99.90
40454;DHT22;26160;51.858;4.398;2023-03-13T13:46:26;16.30;99.90
40454;DHT22;26160;51.858;4.398;2023-03-13T13:51:37;16.40;99.90
40454;DHT22;26160;51.858;4.398;2023-03-13T13:54:10;16.40;99.90
40454;DHT22;26160;51.858;4.398;2023-03-13T13:56:58;16.40;99.90
40454;DHT22;26160;51.858;4.398;2023-03-13T13:59:33;16.40;99.90
40454;DHT22;26160;51.858;4.398;2023-03-13T14:05:21;16.20;99.90
40454;DHT22;26160;51.858;4.398;2023-03-13T14:10:05;16.30;99.90
40454;DHT22;26160;51.858;4.398;2023-03-13T14:12:34;16.30;99.90
40454;DHT22;26160;51.858;4.398;2023-03-13T14:17:50;16.30;99.90
40454;DHT22;26160;51.858;4.398;2023-03-13T14:23:01;16.30;99.90
40454;DHT22;26160;51.858;4.398;2023-03-13T14:25:39;16.40;99.90
40454;DHT22;26160;51.858;4.398;2023-03-13T14:28:18;16.30;99.90
40454;DHT22;26160;51.858;4.398;2023-03-13T14:30:46;16.30;99.90
40454;DHT22;26160;51.858;4.398;2023-03-13T14:33:12;16.40;99.90
40454;DHT22;26160;51.858;4.398;2023-03-13T14:35:39;16.40;99.90
40454;DHT22;26160;51.858;4.398;2023-03-13T14:38:05;16.30;99.90
40454;DHT22;26160;51.858;4.398;2023-03-13T14:40:36;16.30;99.90
40454;DHT22;26160;51.858;4.398;2023-03-13T14:43:03;16.30;99.90
40454;DHT22;26160;51.858;4.398;2023-03-13T14:45:34;16.20;99.90
40454;DHT22;26160;51.858;4.398;2023-03-13T14:48:42;16.20;99.90
40454;DHT22;26160;51.858;4.398;2023-03-13T14:51:09;16.40;99.90
40454;DHT22;26160;51.858;4.398;2023-03-13T14:53:36;16.30;99.90
40454;DHT22;26160;51.858;4.398;2023-03-13T14:56:13;16.30;99.90
40454;DHT22;26160;51.858;4.398;2023-03-13T14:58:40;16.20;99.90
40454;DHT22;26160;51.858;4.398;2023-03-13T15:01:21;16.20;99.90
40454;DHT22;26160;51.858;4.398;2023-03-13T15:03:48;16.20;99.90
40454;DHT22;26160;51.858;4.398;2023-03-13T15:06:17;16.30;99.90
40454;DHT22;26160;51.858;4.398;2023-03-13T15:08:47;16.20;99.90
40454;DHT22;26160;51.858;4.398;2023-03-13T15:11:28;16.20;99.90
40454;DHT22;26160;51.858;4.398;2023-03-13T15:13:56;16.00;99.90
40454;DHT22;26160;51.858;4.398;2023-03-13T15:16:23;16.00;99.90
40454;DHT22;26160;51.858;4.398;2023-03-13T15:18:51;15.80;99.90
40454;DHT22;26160;51.858;4.398;2023-03-13T15:21:22;15.70;99.90
40454;DHT22;26160;51.858;4.398;2023-03-13T15:23:54;15.70;99.90
40454;DHT22;26160;51.858;4.398;2023-03-13T15:26:22;15.60;99.90
40454;DHT22;26160;51.858;4.398;2023-03-13T15:28:49;15.50;99.90
40454;DHT22;26160;51.858;4.398;2023-03-13T15:31:16;15.50;99.90
40454;DHT22;26160;51.858;4.398;2023-03-13T15:33:45;15.40;99.90
40454;DHT22;26160;51.858;4.398;2023-03-13T15:36:11;15.40;99.90
40454;DHT22;26160;51.858;4.398;2023-03-13T15:38:37;15.30;99.90
40454;DHT22;26160;51.858;4.398;2023-03-13T15:41:03;15.30;99.90
40454;DHT22;26160;51.858;4.398;2023-03-13T15:43:33;15.20;99.90
40454;DHT22;26160;51.858;4.398;2023-03-13T15:46:00;15.20;99.90
40454;DHT22;26160;51.858;4.398;2023-03-13T15:48:27;15.10;99.90
40454;DHT22;26160;51.858;4.398;2023-03-13T15:50:56;15.10;99.90
40454;DHT22;26160;51.858;4.398;2023-03-13T15:53:31;15.00;99.90
40454;DHT22;26160;51.858;4.398;2023-03-13T15:56:00;15.00;99.90
40454;DHT22;26160;51.858;4.398;2023-03-13T15:58:27;14.90;99.90
40454;DHT22;26160;51.858;4.398;2023-03-13T16:00:54;14.80;99.90
40454;DHT22;26160;51.858;4.398;2023-03-13T16:03:24;14.80;99.90
40454;DHT22;26160;51.858;4.398;2023-03-13T16:05:52;14.80;99.90
40454;DHT22;26160;51.858;4.398;2023-03-13T16:08:28;14.70;99.90
40454;DHT22;26160;51.858;4.398;2023-03-13T16:10:55;14.60;99.90
40454;DHT22;26160;51.858;4.398;2023-03-13T16:13:21;14.60;99.90
40454;DHT22;26160;51.858;4.398;2023-03-13T16:15:47;14.50;99.90
40454;DHT22;26160;51.858;4.398;2023-03-13T16:18:22;14.40;99.90
40454;DHT22;26160;51.858;4.398;2023-03-13T16:20:49;14.40;99.90
40454;DHT22;26160;51.858;4.398;2023-03-13T16:23:15;14.30;99.90
40454;DHT22;26160;51.858;4.398;2023-03-13T16:25:43;14.30;99.90
40454;DHT22;26160;51.858;4.398;2023-03-13T16:28:34;14.20;99.90
40454;DHT22;26160;51.858;4.398;2023-03-13T16:31:18;14.20;99.90
40454;DHT22;26160;51.858;4.398;2023-03-13T16:43:19;14.00;99.90
40454;DHT22;26160;51.858;4.398;2023-03-13T16:45:50;13.90;99.90
40454;DHT22;26160;51.858;4.398;2023-03-13T16:48:20;13.80;99.90
40454;DHT22;26160;51.858;4.398;2023-03-13T16:51:02;13.80;99.90
40454;DHT22;26160;51.858;4.398;2023-03-13T16:54:03;13.70;99.90
40454;DHT22;26160;51.858;4.398;2023-03-13T16:59:17;13.60;99.90
40454;DHT22;26160;51.858;4.398;2023-03-13T17:02:01;13.50;99.90
40454;DHT22;26160;51.858;4.398;2023-03-13T17:11:11;13.30;99.90
40454;DHT22;26160;51.858;4.398;2023-03-13T17:14:00;13.10;99.90
40454;DHT22;26160;51.858;4.398;2023-03-13T17:19:39;13.00;99.90
40454;DHT22;26160;51.858;4.398;2023-03-13T17:31:09;12.70;99.90
40454;DHT22;26160;51.858;4.398;2023-03-13T17:33:40;12.70;99.90
40454;DHT22;26160;51.858;4.398;2023-03-13T17:36:27;12.70;99.90
40454;DHT22;26160;51.858;4.398;2023-03-13T17:39:01;12.70;99.90
40454;DHT22;26160;51.858;4.398;2023-03-13T17:47:37;12.60;99.90
40454;DHT22;26160;51.858;4.398;2023-03-13T17:50:24;12.50;99.90
40454;DHT22;26160;51.858;4.398;2023-03-13T17:53:27;12.50;99.90
40454;DHT22;26160;51.858;4.398;2023-03-13T18:01:11;12.30;99.90
40454;DHT22;26160;51.858;4.398;2023-03-13T18:03:40;12.30;99.90
40454;DHT22;26160;51.858;4.398;2023-03-13T18:06:38;12.30;99.90